• Join FlightAware (Why Join?)
  • Login
  • US Flag 
11:50PM EST


 

Airport Tracker/Info


-or-


 

Live Flight TrackerFlight Track Log ✈ THY1074 ✈ 17-Mar-2014 ✈ LATI / TIA - LTBA / IST

Flight Track Log - Related Links

Times and Time Zones

All times are in EDT time to prevent confusion due to time zone crossing. See the THY1074 flight status page for this flight to view local times or setup timezone preferences in your user account.

Time Position Orientation Groundspeed Altitude Reporting Facility
EDT Latitude Longitude Course Direction KTS MPH feet Rate Location/Type
04:19AM 41.3976 20.9551 91° East  Level Estimated
04:20AM 41.3952 21.0785 91° East  Level Estimated
04:21AM 41.3926 21.2019 92° East  Level Estimated
04:22AM 41.3899 21.3253 92° East  Level Estimated
04:23AM 41.3871 21.4486 92° East  Level Estimated
04:24AM 41.3841 21.5720 92° East  Level Estimated
04:25AM 41.3810 21.6954 92° East  Level Estimated
04:26AM 41.3778 21.8187 92° East  Level Estimated
04:27AM 41.3745 21.9420 92° East  Level Estimated
04:28AM 41.3710 22.0653 92° East  Level Estimated
04:29AM 41.3673 22.1887 92° East  Level Estimated
04:30AM 41.3636 22.3120 92° East  Level Estimated
04:31AM 41.3597 22.4352 92° East  Level Estimated
04:32AM 41.3557 22.5585 92° East  Level Estimated
04:33AM 41.3515 22.6817 93° East  Level Estimated
04:34AM 41.3473 22.8050 93° East  Level Estimated
04:35AM 41.3428 22.9282 93° East  Level Estimated
04:36AM 41.3383 23.0514 93° East  Level Estimated
04:37AM 41.3336 23.1745 93° East  Level Estimated
04:38AM 41.3288 23.2977 93° East  Level Estimated
04:39AM 41.3239 23.4209 93° East  Level Estimated
04:40AM 41.3188 23.5440 93° East  Level Estimated
04:41AM 41.3136 23.6671 93° East  Level Estimated
04:42AM 41.3083 23.7902 93° East  Level Estimated
04:43AM 41.3028 23.9132 93° East  Level Estimated
04:44AM 41.2972 24.0363 93° East  Level Estimated
04:45AM 41.2915 24.1593 94° East  Level Estimated
04:46AM 41.2857 24.2823 94° East  Level Estimated
04:47AM 41.2797 24.4053 94° East  Level Estimated
04:48AM 41.2736 24.5282 94° East  Level Estimated
04:49AM 41.2673 24.6512 94° East  Level Estimated
04:50AM 41.2609 24.7741 94° East  Level Estimated
04:51AM 41.2544 24.8970 94° East  Level Estimated
04:52AM 41.2478 25.0198 94° East  Level Estimated
04:53AM 41.2410 25.1427 94° East  Level Estimated
04:54AM 41.2341 25.2655 94° East  Level Estimated
04:55AM 41.2271 25.3883 94° East  Level Estimated
04:56AM 41.2199 25.5110 94° East  Level Estimated
04:57AM 41.2126 25.6337 94° East  Level Estimated
04:58AM 41.2052 25.7564 95° East  Level Estimated
04:59AM 41.1977 25.8791 95° East  Level Estimated
05:00AM 41.1900 26.0018 95° East  Level Estimated
05:01AM 41.1822 26.1244 95° East  Level Estimated
05:02AM 41.1742 26.2470 95° East  Level Estimated
05:03AM 41.1662 26.3695 95° East  Level Estimated
05:04AM 41.1580 26.4920 95° East  Level Estimated
05:05AM 41.1496 26.6145 95° East  Level Estimated
05:06AM 41.1412 26.7370 95° East  Level Estimated
05:07AM 41.1326 26.8594 95° East  Level Estimated
05:08AM 41.1239 26.9818 95° East  Level Estimated
05:09AM 41.1150 27.1042 95° East  Level Estimated
05:10AM 41.1060 27.2265 96° East  Level Estimated
05:11AM 41.0969 27.3488 96° East  Level Estimated
05:12AM 41.0877 27.4711 96° East  Level Estimated
05:13AM 41.0783 27.5933 96° East  Level Estimated
05:14AM 41.0688 27.7155 96° East  Level Estimated
05:15AM 41.0592 27.8377 96° East  Level Estimated
05:16AM 41.0494 27.9598 96° East  Level Estimated
05:17AM 41.0396 28.0819 96° East  Level Estimated
05:18AM 41.0295 28.2039 96° East  Level Estimated
05:19AM 41.0194 28.3260 96° East  Level Estimated
05:20AM 41.0091 28.4479 96° East  Level Estimated
05:21AM 40.9987 28.5699 96° East  Level Estimated
05:22AM 40.9882 28.6918 96° East  Level Estimated
05:23AM 40.9776 28.8136 97° East  Level Estimated
05:24AM 40.9769 28.8211 97° East  Level Estimated
05:25AM 40.9769 28.8211 North  Level Estimated
05:26AM 40.9769 28.8211 North  Level Estimated
05:27AM 40.9769 28.8211 North  Level Estimated
05:28AM 40.9769 28.8211 North  Level Estimated
05:29AM 40.9769 28.8211 North  Level Estimated
05:30AM 40.9769 28.8211 North  Level Estimated
05:31AM 40.9769 28.8211 North  Level Estimated
05:32AM 40.9769 28.8211 North  Level Estimated
05:33AM 40.9769 28.8211 North  Level Estimated
05:34AM 40.9769 28.8211 North  Level Estimated
05:35AM 40.9769 28.8211 North  Level Estimated
05:36AM 40.9769 28.8211 North  Level Estimated
05:37AM 40.9769 28.8211 North  Level Estimated
05:38AM 40.9769 28.8211 North  Level Estimated
05:39AM 40.9769 28.8211 North  Level Estimated